Time;durP1;ratioP1;P1;durP2;ratioP2;P2;SDS_P1;SDS_P2;PMS_P1;PMS_P2;Temp;Humidity;BMP_temperature;BMP_pressure;BME280_temperature;BME280_humidity;BME280_pressure;Samples;Min_cycle;Max_cycle;Signal;HPM_P1;HPM_P2
2022/10/18 00:02:35;;;;;;;13.70;5.27;;;15.40;99.90;;;;;;5069641;28;20466;-76
2022/10/18 00:05:21;;;;;;;8.50;5.67;;;15.40;99.90;;;;;;5064902;28;21060;-75
2022/10/18 00:08:07;;;;;;;16.97;4.87;;;15.40;99.90;;;;;;5073741;28;20425;-75
2022/10/18 00:10:53;;;;;;;8.50;5.10;;;15.30;99.90;;;;;;5070971;28;20573;-76
2022/10/18 00:13:40;;;;;;;22.10;5.87;;;15.30;99.90;;;;;;5068911;28;20471;-75
2022/10/18 00:16:26;;;;;;;8.93;5.40;;;15.40;99.90;;;;;;5068773;28;20444;-75
2022/10/18 00:19:11;;;;;;;12.77;5.60;;;15.40;99.90;;;;;;5069588;28;20438;-75
2022/10/18 00:21:57;;;;;;;10.50;5.43;;;15.50;99.90;;;;;;5067641;28;20420;-76
2022/10/18 00:24:42;;;;;;;10.40;4.90;;;15.50;99.90;;;;;;5068777;28;21003;-75
2022/10/18 00:27:29;;;;;;;12.23;4.97;;;15.40;99.90;;;;;;5064190;28;20447;-76
2022/10/18 00:30:16;;;;;;;12.80;5.40;;;15.30;99.90;;;;;;5069434;28;20455;-75
2022/10/18 00:33:02;;;;;;;11.97;5.13;;;15.40;99.90;;;;;;5067094;28;20504;-75
2022/10/18 00:35:48;;;;;;;7.13;4.80;;;15.40;99.90;;;;;;5065213;28;20467;-75
2022/10/18 00:38:33;;;;;;;20.07;5.60;;;15.40;99.90;;;;;;5066926;28;21187;-75
2022/10/18 00:41:22;;;;;;;10.30;4.93;;;15.40;99.90;;;;;;5069813;28;20444;-75
2022/10/18 00:44:46;;;;;;;9.90;5.67;;;15.40;99.90;;;;;;5064581;28;20537;-75
2022/10/18 00:47:35;;;;;;;15.43;5.73;;;15.50;99.90;;;;;;5069016;28;20418;-74
2022/10/18 00:50:23;;;;;;;11.97;6.20;;;15.50;99.90;;;;;;5066604;28;20573;-75
2022/10/18 00:53:14;;;;;;;16.07;6.27;;;15.50;99.90;;;;;;5068894;28;20820;-75
2022/10/18 00:56:00;;;;;;;7.80;5.53;;;15.50;99.90;;;;;;5067908;28;20959;-75
2022/10/18 00:58:47;;;;;;;11.47;6.37;;;15.60;99.90;;;;;;5068231;28;20476;-75
2022/10/18 01:01:33;;;;;;;16.77;6.07;;;15.60;99.90;;;;;;5067082;28;20492;-75
2022/10/18 01:04:21;;;;;;;13.07;5.33;;;15.60;99.90;;;;;;5069455;28;20445;-74
2022/10/18 01:07:28;;;;;;;12.60;5.50;;;15.60;99.90;;;;;;5068203;28;20459;-75
2022/10/18 01:10:23;;;;;;;32.03;6.23;;;15.70;99.90;;;;;;5070052;28;20458;-75
2022/10/18 01:13:32;;;;;;;13.40;5.87;;;15.70;99.90;;;;;;5067889;28;21016;-75
2022/10/18 01:16:26;;;;;;;14.63;5.10;;;15.70;99.90;;;;;;5065519;28;20514;-74
2022/10/18 01:19:35;;;;;;;15.93;5.30;;;15.80;99.90;;;;;;5066596;28;20827;-75
2022/10/18 01:22:26;;;;;;;12.03;5.87;;;15.80;99.90;;;;;;5069617;28;20813;-75
2022/10/18 01:25:27;;;;;;;19.80;6.20;;;15.70;99.90;;;;;;5064003;28;20502;-75
2022/10/18 01:28:31;;;;;;;11.23;5.30;;;15.80;99.90;;;;;;5067216;28;20487;-74
2022/10/18 01:31:21;;;;;;;9.33;5.60;;;15.80;99.90;;;;;;5065244;28;20500;-75
2022/10/18 01:34:10;;;;;;;11.80;7.30;;;15.80;99.90;;;;;;5064067;28;20464;-75
2022/10/18 01:36:57;;;;;;;17.30;6.53;;;15.90;99.90;;;;;;5058457;28;20531;-75
2022/10/18 01:39:46;;;;;;;13.90;5.77;;;15.70;99.90;;;;;;5067024;28;20831;-75
2022/10/18 01:42:32;;;;;;;16.87;6.33;;;15.70;99.90;;;;;;5068870;28;20441;-75
2022/10/18 01:45:20;;;;;;;14.00;7.60;;;15.70;99.90;;;;;;5059736;28;20546;-74
2022/10/18 01:48:08;;;;;;;8.33;6.43;;;15.70;99.90;;;;;;5066091;28;20440;-75
2022/10/18 01:50:54;;;;;;;17.50;7.90;;;15.70;99.90;;;;;;5069305;28;20454;-75
2022/10/18 01:53:40;;;;;;;16.40;7.03;;;15.70;99.90;;;;;;5068432;28;20433;-75
2022/10/18 01:56:33;;;;;;;14.10;6.93;;;15.80;99.90;;;;;;5066111;28;20412;-75
2022/10/18 01:59:36;;;;;;;15.30;6.50;;;15.80;99.90;;;;;;5069330;28;20435;-75
2022/10/18 02:02:38;;;;;;;18.37;7.50;;;15.90;99.90;;;;;;5067704;28;20412;-75
2022/10/18 02:05:32;;;;;;;15.77;6.70;;;15.90;99.90;;;;;;5067008;28;20511;-75
2022/10/18 02:08:26;;;;;;;16.30;6.00;;;15.90;99.90;;;;;;5065547;28;20442;-75
2022/10/18 02:11:15;;;;;;;11.03;6.57;;;16.00;99.90;;;;;;5064466;28;20558;-75
2022/10/18 02:14:05;;;;;;;15.00;6.50;;;15.90;99.90;;;;;;5064442;28;20463;-75
2022/10/18 02:16:54;;;;;;;15.73;7.93;;;15.90;99.90;;;;;;5071114;28;20435;-75
2022/10/18 02:19:44;;;;;;;19.10;6.87;;;15.90;99.90;;;;;;5065339;28;20450;-75
2022/10/18 02:22:33;;;;;;;14.10;6.30;;;15.80;99.90;;;;;;5066397;28;20863;-75
2022/10/18 02:25:23;;;;;;;9.57;5.80;;;15.90;99.90;;;;;;5064774;28;21273;-75
2022/10/18 02:28:09;;;;;;;10.53;6.07;;;15.90;99.90;;;;;;5067775;28;20421;-75
2022/10/18 02:31:03;;;;;;;8.50;6.40;;;15.90;99.90;;;;;;5064371;28;20578;-75
2022/10/18 02:33:53;;;;;;;10.97;6.97;;;15.80;99.90;;;;;;5067123;28;20449;-75
2022/10/18 02:36:44;;;;;;;17.70;7.40;;;15.80;99.90;;;;;;5066834;28;20445;-75
2022/10/18 02:39:34;;;;;;;23.03;6.57;;;15.80;99.90;;;;;;5068132;28;20417;-75
2022/10/18 02:42:20;;;;;;;8.63;6.00;;;15.80;99.90;;;;;;5067117;28;20487;-75
2022/10/18 02:45:06;;;;;;;18.70;7.47;;;15.80;99.90;;;;;;5062363;28;20502;-75
2022/10/18 02:47:53;;;;;;;14.03;6.17;;;15.80;99.90;;;;;;5065859;28;20442;-75
2022/10/18 02:50:38;;;;;;;19.03;7.93;;;15.80;99.90;;;;;;5067271;28;20462;-75
2022/10/18 02:53:24;;;;;;;8.67;6.50;;;15.80;99.90;;;;;;5067261;28;20486;-75
2022/10/18 02:56:11;;;;;;;15.07;7.30;;;15.90;99.90;;;;;;5076086;28;20434;-75
2022/10/18 02:58:57;;;;;;;28.13;7.10;;;15.90;99.90;;;;;;5060508;28;20446;-75
2022/10/18 03:01:42;;;;;;;14.00;6.97;;;15.90;99.90;;;;;;5069250;28;20462;-75
2022/10/18 03:04:28;;;;;;;10.47;7.27;;;15.90;99.90;;;;;;5067545;28;20662;-75
2022/10/18 03:07:14;;;;;;;17.23;7.30;;;15.90;99.90;;;;;;5076740;28;20446;-75
2022/10/18 03:09:59;;;;;;;21.33;6.77;;;15.90;99.90;;;;;;5066367;28;20514;-75
2022/10/18 03:12:47;;;;;;;15.00;6.60;;;15.90;99.90;;;;;;5070742;28;20835;-75
2022/10/18 03:15:32;;;;;;;15.50;7.10;;;15.90;99.90;;;;;;5059894;28;20783;-75
2022/10/18 03:18:18;;;;;;;12.10;7.10;;;15.90;99.90;;;;;;5066434;28;20484;-75
2022/10/18 03:21:05;;;;;;;15.13;6.80;;;15.90;99.90;;;;;;5065251;28;20512;-75
2022/10/18 03:23:50;;;;;;;7.80;6.30;;;15.90;99.90;;;;;;5066982;28;20622;-75
2022/10/18 03:26:36;;;;;;;16.73;7.60;;;15.90;99.90;;;;;;5069559;28;20470;-74
2022/10/18 03:29:23;;;;;;;12.93;8.13;;;15.90;99.90;;;;;;5062565;28;20491;-75
2022/10/18 03:32:08;;;;;;;18.17;6.83;;;15.90;99.90;;;;;;5067047;28;20439;-75
2022/10/18 03:34:54;;;;;;;21.97;7.40;;;15.90;99.90;;;;;;5064876;28;21310;-75
2022/10/18 03:37:40;;;;;;;15.73;6.20;;;16.00;99.90;;;;;;5067321;28;20446;-75
2022/10/18 03:40:26;;;;;;;11.70;6.60;;;16.00;99.90;;;;;;5067015;28;20442;-75
2022/10/18 03:43:11;;;;;;;18.37;7.30;;;16.00;99.90;;;;;;5067672;28;20444;-75
2022/10/18 03:45:59;;;;;;;8.33;6.23;;;15.90;99.90;;;;;;5071075;28;20449;-75
2022/10/18 03:48:44;;;;;;;15.03;7.50;;;16.00;99.90;;;;;;5068576;28;20663;-75
2022/10/18 03:51:29;;;;;;;14.07;6.63;;;15.90;99.90;;;;;;5066557;28;20458;-75
2022/10/18 03:54:15;;;;;;;19.87;8.53;;;15.90;99.90;;;;;;5062930;28;20518;-75
2022/10/18 03:57:01;;;;;;;10.17;7.50;;;15.90;99.90;;;;;;5064668;28;20455;-75
2022/10/18 03:59:47;;;;;;;17.43;7.30;;;15.80;99.90;;;;;;5069672;28;20934;-75
2022/10/18 04:02:35;;;;;;;9.80;7.20;;;15.80;99.90;;;;;;5064565;28;20444;-75
2022/10/18 04:05:22;;;;;;;12.00;6.40;;;15.90;99.90;;;;;;5077699;28;20468;-75
2022/10/18 04:08:08;;;;;;;22.70;6.90;;;15.80;99.90;;;;;;5065403;28;20453;-74
2022/10/18 04:10:54;;;;;;;14.33;7.97;;;16.00;99.90;;;;;;5067060;28;20451;-74
2022/10/18 04:13:39;;;;;;;17.47;8.00;;;16.10;99.90;;;;;;5066601;28;20644;-75
2022/10/18 04:16:25;;;;;;;13.43;8.67;;;16.10;99.90;;;;;;5068837;28;20851;-75
2022/10/18 04:19:12;;;;;;;18.40;7.77;;;16.20;99.90;;;;;;5065861;28;20439;-75
2022/10/18 04:21:58;;;;;;;17.90;7.90;;;16.30;99.90;;;;;;5065124;28;21040;-75
2022/10/18 04:24:44;;;;;;;12.40;8.00;;;16.30;99.90;;;;;;5060127;28;20445;-75
2022/10/18 04:27:29;;;;;;;14.60;7.97;;;16.40;99.90;;;;;;5065599;28;22102;-75
2022/10/18 04:30:15;;;;;;;13.17;6.93;;;16.40;99.90;;;;;;5071485;28;20891;-75
2022/10/18 04:33:01;;;;;;;18.10;6.37;;;16.50;99.90;;;;;;5066971;28;20474;-75
2022/10/18 04:35:51;;;;;;;11.10;7.33;;;16.50;99.90;;;;;;5068074;28;20417;-75
2022/10/18 04:38:37;;;;;;;17.60;7.27;;;16.50;99.90;;;;;;5060520;28;20425;-75
2022/10/18 04:41:23;;;;;;;17.73;7.30;;;16.50;99.90;;;;;;5069823;28;20505;-75
2022/10/18 04:44:09;;;;;;;12.43;8.13;;;16.60;99.90;;;;;;5064216;28;20455;-74
2022/10/18 04:46:54;;;;;;;17.00;6.70;;;16.50;99.90;;;;;;5068947;28;20511;-75
2022/10/18 04:49:40;;;;;;;9.90;7.40;;;16.50;99.90;;;;;;5067488;28;20416;-75
2022/10/18 04:52:27;;;;;;;11.23;6.73;;;16.50;99.90;;;;;;5059557;28;20450;-74
2022/10/18 04:55:12;;;;;;;15.40;7.63;;;16.60;99.90;;;;;;5067952;28;20483;-75
2022/10/18 04:57:58;;;;;;;14.57;7.80;;;16.50;99.90;;;;;;5064452;28;20445;-75
2022/10/18 05:00:44;;;;;;;8.23;6.47;;;16.50;99.90;;;;;;5066297;28;20548;-75
2022/10/18 05:03:30;;;;;;;18.53;7.33;;;16.50;99.90;;;;;;5057706;28;20476;-75
2022/10/18 05:06:16;;;;;;;9.70;7.37;;;16.50;99.90;;;;;;5056910;28;20471;-75
2022/10/18 05:09:03;;;;;;;11.47;7.40;;;16.50;99.90;;;;;;5068857;28;20931;-75
2022/10/18 05:11:49;;;;;;;15.43;8.47;;;16.50;99.90;;;;;;5065387;28;20458;-76
2022/10/18 05:14:34;;;;;;;14.03;7.30;;;16.40;99.90;;;;;;5055278;28;20580;-76
2022/10/18 05:17:20;;;;;;;9.87;6.60;;;16.40;99.90;;;;;;5069208;28;20546;-75
2022/10/18 05:20:07;;;;;;;12.70;7.00;;;16.50;99.90;;;;;;5066522;28;20506;-75
2022/10/18 05:22:52;;;;;;;11.47;6.67;;;16.50;99.90;;;;;;5066315;28;20491;-75
2022/10/18 05:25:40;;;;;;;17.70;6.53;;;16.50;99.90;;;;;;5061161;28;20478;-74
2022/10/18 05:28:25;;;;;;;21.60;7.10;;;16.40;99.90;;;;;;5067429;28;20622;-75
2022/10/18 05:31:11;;;;;;;11.70;6.40;;;16.50;99.90;;;;;;5067593;28;20967;-74
2022/10/18 05:33:57;;;;;;;11.00;6.53;;;16.50;99.90;;;;;;5062047;28;20445;-75
2022/10/18 05:36:43;;;;;;;13.10;6.17;;;16.50;99.90;;;;;;5068397;28;20421;-75
2022/10/18 05:39:29;;;;;;;13.13;6.87;;;16.60;99.90;;;;;;5068479;28;20425;-75
2022/10/18 05:42:16;;;;;;;12.30;7.20;;;16.60;99.90;;;;;;5066797;28;21041;-75
2022/10/18 05:45:02;;;;;;;17.53;8.03;;;16.60;99.90;;;;;;5075188;28;20483;-74
2022/10/18 05:47:47;;;;;;;10.33;5.73;;;16.50;99.90;;;;;;5065650;28;20446;-75
2022/10/18 05:50:33;;;;;;;13.93;7.37;;;16.50;99.90;;;;;;5066722;28;20561;-75
2022/10/18 05:53:19;;;;;;;15.40;6.10;;;16.50;99.90;;;;;;5056379;28;20438;-75
2022/10/18 05:56:05;;;;;;;25.27;7.50;;;16.50;99.90;;;;;;5066813;28;20428;-75
2022/10/18 05:58:53;;;;;;;16.93;6.53;;;16.40;99.90;;;;;;5067214;28;20462;-75
2022/10/18 06:01:39;;;;;;;15.43;6.27;;;16.50;99.90;;;;;;5063715;28;20438;-75
2022/10/18 06:04:25;;;;;;;11.83;6.40;;;16.40;99.90;;;;;;5064740;28;20441;-75
2022/10/18 06:07:11;;;;;;;13.83;6.40;;;16.30;99.90;;;;;;5059775;28;20506;-75
2022/10/18 06:09:56;;;;;;;12.77;5.40;;;16.30;99.90;;;;;;5067934;28;20934;-75
2022/10/18 06:12:42;;;;;;;11.20;6.07;;;16.30;99.90;;;;;;5062370;28;20545;-74
2022/10/18 06:15:29;;;;;;;10.47;6.37;;;16.30;99.90;;;;;;5056138;28;20441;-75
2022/10/18 06:18:15;;;;;;;11.63;5.70;;;16.20;99.90;;;;;;5063041;28;20421;-75
2022/10/18 06:21:00;;;;;;;13.60;6.27;;;16.20;99.90;;;;;;5050283;28;20443;-75
2022/10/18 06:23:48;;;;;;;7.53;5.60;;;16.10;99.90;;;;;;5062202;28;20459;-75
2022/10/18 06:26:34;;;;;;;11.37;4.90;;;16.10;99.90;;;;;;5071716;28;21011;-75
2022/10/18 06:29:20;;;;;;;14.10;6.60;;;16.10;99.90;;;;;;5070511;28;20432;-76
2022/10/18 06:32:08;;;;;;;14.73;5.67;;;16.10;99.90;;;;;;5066042;28;20447;-76
2022/10/18 06:34:54;;;;;;;8.47;5.73;;;16.20;99.90;;;;;;5070100;28;20536;-75
2022/10/18 06:37:39;;;;;;;9.90;5.90;;;16.20;99.90;;;;;;5072595;28;20424;-76
2022/10/18 06:40:25;;;;;;;17.43;6.00;;;16.30;99.90;;;;;;5073716;28;20421;-76
2022/10/18 06:43:10;;;;;;;13.90;6.17;;;16.40;99.90;;;;;;5070730;28;20959;-76
2022/10/18 06:45:56;;;;;;;10.50;6.97;;;16.30;99.90;;;;;;5069764;28;20966;-76
2022/10/18 06:48:43;;;;;;;10.27;5.97;;;16.20;99.90;;;;;;5063405;28;20534;-75
2022/10/18 06:51:28;;;;;;;19.27;6.30;;;16.30;99.90;;;;;;5069351;28;20555;-76
2022/10/18 06:54:14;;;;;;;19.33;6.80;;;16.30;99.90;;;;;;5079225;28;20794;-75
2022/10/18 06:57:01;;;;;;;16.47;6.30;;;16.30;99.90;;;;;;5069326;28;20799;-75
2022/10/18 06:59:46;;;;;;;10.63;6.13;;;16.30;99.90;;;;;;5070813;28;20450;-76
2022/10/18 07:02:32;;;;;;;10.00;5.80;;;16.40;99.90;;;;;;5073633;28;20452;-76
2022/10/18 07:05:19;;;;;;;7.67;5.87;;;16.50;99.90;;;;;;5066555;28;20510;-76
2022/10/18 07:08:05;;;;;;;11.73;5.13;;;16.50;99.90;;;;;;5069511;28;20445;-76
2022/10/18 07:10:52;;;;;;;8.77;6.47;;;16.50;99.90;;;;;;5063034;28;20446;-75
2022/10/18 07:13:37;;;;;;;16.27;5.97;;;16.40;99.90;;;;;;5070840;28;20577;-76
2022/10/18 07:16:23;;;;;;;9.90;6.07;;;16.50;99.90;;;;;;5074167;28;20428;-76
2022/10/18 07:19:08;;;;;;;16.03;5.93;;;16.50;99.90;;;;;;5073716;28;20434;-76
2022/10/18 07:21:56;;;;;;;15.13;6.80;;;16.60;99.90;;;;;;5060287;28;20428;-75
2022/10/18 07:24:41;;;;;;;10.30;6.50;;;16.50;99.90;;;;;;5073901;28;20413;-74
2022/10/18 07:27:27;;;;;;;12.90;6.37;;;16.50;99.90;;;;;;5073223;28;20442;-76
2022/10/18 07:30:13;;;;;;;16.47;6.43;;;16.50;99.90;;;;;;5055171;28;20543;-75
2022/10/18 07:32:58;;;;;;;8.80;6.07;;;16.50;99.90;;;;;;5065300;28;20444;-76
2022/10/18 07:35:44;;;;;;;12.40;6.90;;;16.60;99.90;;;;;;5062446;28;20444;-76
2022/10/18 07:38:31;;;;;;;23.07;6.87;;;16.70;99.90;;;;;;5073574;28;20427;-76
2022/10/18 07:41:16;;;;;;;11.70;7.27;;;16.70;99.90;;;;;;5069441;28;20949;-76
2022/10/18 07:44:03;;;;;;;13.27;7.73;;;16.60;99.90;;;;;;5055319;28;20406;-75
2022/10/18 07:46:48;;;;;;;17.07;7.73;;;16.60;99.90;;;;;;5074022;28;20449;-76
2022/10/18 07:49:34;;;;;;;11.70;7.27;;;16.70;99.90;;;;;;5072849;28;20475;-74
2022/10/18 07:52:20;;;;;;;11.17;7.27;;;16.70;99.90;;;;;;5068670;28;20422;-76
2022/10/18 07:55:08;;;;;;;15.10;7.60;;;16.80;99.90;;;;;;5071627;28;20946;-75
2022/10/18 07:57:53;;;;;;;19.13;7.47;;;16.80;99.90;;;;;;5073904;28;20409;-76
2022/10/18 08:00:40;;;;;;;17.10;7.97;;;16.80;99.90;;;;;;5065507;28;20937;-76
2022/10/18 08:03:25;;;;;;;11.60;8.80;;;16.80;99.90;;;;;;5063715;28;20466;-75
2022/10/18 08:06:14;;;;;;;12.97;9.30;;;16.90;99.90;;;;;;5066635;28;20437;-75
2022/10/18 08:08:59;;;;;;;18.83;9.80;;;16.80;99.90;;;;;;5072015;28;20432;-76
2022/10/18 08:11:46;;;;;;;23.30;9.90;;;16.80;99.90;;;;;;5066251;28;20433;-76
2022/10/18 08:14:32;;;;;;;13.07;9.40;;;16.90;99.90;;;;;;5071676;28;20466;-76
2022/10/18 08:17:17;;;;;;;12.30;11.00;;;16.90;99.90;;;;;;5066533;28;20433;-76
2022/10/18 08:20:04;;;;;;;13.47;10.47;;;16.90;99.90;;;;;;5057050;28;20425;-76
2022/10/18 08:22:50;;;;;;;16.73;10.53;;;16.90;99.90;;;;;;5062533;28;20488;-76
2022/10/18 08:25:36;;;;;;;14.57;9.83;;;16.90;99.90;;;;;;5063098;28;20580;-75
2022/10/18 08:28:23;;;;;;;17.73;9.90;;;17.00;99.90;;;;;;5064150;28;21057;-76
2022/10/18 08:31:11;;;;;;;11.23;9.80;;;17.00;99.90;;;;;;5054285;28;20463;-76
2022/10/18 08:33:57;;;;;;;23.83;9.93;;;17.10;99.90;;;;;;5061891;28;20844;-74
2022/10/18 08:36:42;;;;;;;20.10;10.83;;;17.10;99.90;;;;;;5070852;28;20735;-75
2022/10/18 08:39:28;;;;;;;16.83;9.43;;;17.10;99.90;;;;;;5070562;28;20446;-76
2022/10/18 08:42:44;;;;;;;13.97;10.87;;;17.20;99.90;;;;;;5079555;28;20775;-75
2022/10/18 08:45:34;;;;;;;12.30;10.20;;;17.20;99.90;;;;;;5066998;28;20417;-75
2022/10/18 08:48:26;;;;;;;20.43;10.73;;;17.20;99.90;;;;;;5066941;28;20435;-75
2022/10/18 08:51:21;;;;;;;19.00;10.63;;;17.20;99.90;;;;;;5067747;28;20997;-76
2022/10/18 08:54:11;;;;;;;18.47;11.23;;;17.30;99.90;;;;;;5069560;28;20435;-75
2022/10/18 08:57:00;;;;;;;13.17;10.20;;;17.30;99.90;;;;;;5071965;28;20891;-76
2022/10/18 08:59:46;;;;;;;11.73;9.90;;;17.40;99.90;;;;;;5066654;28;21011;-75
2022/10/18 09:03:01;;;;;;;13.33;9.50;;;17.40;99.90;;;;;;5072498;28;20421;-75
2022/10/18 09:05:52;;;;;;;16.13;8.90;;;17.50;99.90;;;;;;5070223;28;20512;-75
2022/10/18 09:09:04;;;;;;;16.50;10.17;;;17.60;99.90;;;;;;5068558;28;20589;-75
2022/10/18 09:11:59;;;;;;;18.73;10.27;;;17.50;99.90;;;;;;5066463;28;20421;-75
2022/10/18 09:15:06;;;;;;;14.10;9.80;;;17.60;99.90;;;;;;5066095;28;20433;-76
2022/10/18 09:18:06;;;;;;;13.57;9.63;;;17.70;99.90;;;;;;5071140;28;20422;-77
2022/10/18 09:20:56;;;;;;;17.83;10.10;;;17.70;99.90;;;;;;5058864;28;20786;-76
2022/10/18 09:23:48;;;;;;;14.13;10.50;;;17.80;99.90;;;;;;5070994;28;20469;-74
2022/10/18 09:26:43;;;;;;;17.73;9.83;;;17.80;99.90;;;;;;5064706;28;20474;-75
2022/10/18 09:29:55;;;;;;;14.53;10.43;;;17.90;99.90;;;;;;5055850;28;20795;-74
2022/10/18 09:32:48;;;;;;;12.97;10.17;;;18.00;99.90;;;;;;5063767;28;20461;-73
2022/10/18 09:35:42;;;;;;;14.50;10.30;;;18.20;99.90;;;;;;5067626;28;20996;-73
2022/10/18 09:38:31;;;;;;;15.10;10.27;;;18.30;99.90;;;;;;5067243;28;20417;-73
2022/10/18 09:41:23;;;;;;;14.97;11.23;;;18.50;99.90;;;;;;5067434;28;20463;-73
2022/10/18 09:44:15;;;;;;;21.73;11.00;;;18.60;99.90;;;;;;5071136;28;20968;-74
2022/10/18 09:47:08;;;;;;;17.00;11.17;;;18.60;99.90;;;;;;5067204;28;20462;-73
2022/10/18 09:49:59;;;;;;;22.30;12.40;;;18.70;99.90;;;;;;5071066;28;20519;-73
2022/10/18 09:52:51;;;;;;;14.40;11.63;;;18.70;99.90;;;;;;5074475;28;20444;-73
2022/10/18 09:55:44;;;;;;;18.73;11.40;;;18.80;99.90;;;;;;5064431;28;20454;-73
2022/10/18 09:58:40;;;;;;;36.57;12.23;;;19.00;99.90;;;;;;5061973;28;20426;-73
2022/10/18 10:01:27;;;;;;;13.77;10.60;;;19.20;99.90;;;;;;5057265;28;20420;-73
2022/10/18 10:04:14;;;;;;;16.90;10.50;;;19.10;99.90;;;;;;5065075;28;20921;-73
2022/10/18 10:07:01;;;;;;;23.80;8.70;;;19.10;99.90;;;;;;5063863;28;20452;-73
2022/10/18 10:09:55;;;;;;;17.87;10.80;;;19.10;99.90;;;;;;5061461;28;20431;-73
2022/10/18 10:12:42;;;;;;;22.90;10.47;;;19.00;99.90;;;;;;5062686;28;20445;-74
2022/10/18 10:15:29;;;;;;;15.03;10.77;;;19.00;99.90;;;;;;5066542;28;21026;-74
2022/10/18 10:18:20;;;;;;;17.93;8.47;;;19.20;99.90;;;;;;5070710;28;20450;-73
2022/10/18 10:21:13;;;;;;;17.03;8.50;;;19.20;99.90;;;;;;5063082;28;20468;-75
2022/10/18 10:23:59;;;;;;;11.90;8.37;;;19.10;99.90;;;;;;5068397;28;20473;-75
2022/10/18 10:26:47;;;;;;;13.93;7.87;;;18.90;99.90;;;;;;5067719;28;20461;-75
2022/10/18 10:29:56;;;;;;;8.47;7.50;;;18.80;99.90;;;;;;5062721;28;20457;-76
2022/10/18 10:32:47;;;;;;;25.80;9.93;;;18.80;99.90;;;;;;5050035;28;20885;-75
2022/10/18 10:35:34;;;;;;;14.43;10.00;;;18.70;99.90;;;;;;5050865;28;20933;-75
2022/10/18 10:38:25;;;;;;;13.17;9.57;;;18.60;99.90;;;;;;5051181;28;20390;-76
2022/10/18 10:41:20;;;;;;;19.80;11.17;;;18.50;99.90;;;;;;5051625;28;20427;-76
2022/10/18 10:44:17;;;;;;;12.10;9.40;;;18.50;99.90;;;;;;5050587;28;20501;-76
2022/10/18 10:47:03;;;;;;;12.00;9.50;;;18.40;99.90;;;;;;5050889;28;20442;-75
2022/10/18 10:49:49;;;;;;;11.30;8.83;;;18.50;99.90;;;;;;5063274;28;20424;-75
2022/10/18 10:52:37;;;;;;;18.30;11.60;;;18.50;99.90;;;;;;5083770;28;20419;-74
2022/10/18 10:55:27;;;;;;;21.50;11.90;;;18.40;99.90;;;;;;5070655;28;20425;-75
2022/10/18 10:58:18;;;;;;;15.53;11.73;;;18.30;99.90;;;;;;5050484;28;20535;-76
2022/10/18 11:01:37;;;;;;;17.50;12.10;;;18.30;99.90;;;;;;5051370;28;20398;-75
2022/10/18 11:04:26;;;;;;;14.20;12.53;;;18.30;99.90;;;;;;5050379;28;20523;-76
2022/10/18 11:07:20;;;;;;;16.50;14.03;;;18.20;99.90;;;;;;5050812;28;20471;-74
2022/10/18 11:10:12;;;;;;;19.93;13.03;;;18.30;99.90;;;;;;5069151;28;20945;-75
2022/10/18 11:13:06;;;;;;;15.67;13.40;;;18.30;99.90;;;;;;5074394;28;20918;-74
2022/10/18 11:15:58;;;;;;;18.43;15.27;;;18.30;99.90;;;;;;5074154;28;20439;-74
2022/10/18 11:18:49;;;;;;;25.77;16.13;;;18.40;99.90;;;;;;5070293;28;20536;-75
2022/10/18 11:21:35;;;;;;;35.17;17.03;;;18.40;99.90;;;;;;5053239;28;20398;-74
2022/10/18 11:24:21;;;;;;;21.00;16.90;;;18.40;99.90;;;;;;5065426;28;20812;-75
2022/10/18 11:27:13;;;;;;;23.87;15.33;;;18.40;99.90;;;;;;5066028;28;20519;-75
2022/10/18 11:30:14;;;;;;;22.27;16.80;;;18.50;99.90;;;;;;5077902;28;20496;-75
2022/10/18 11:33:11;;;;;;;21.90;15.80;;;18.50;99.90;;;;;;5053995;28;20463;-76
2022/10/18 11:36:07;;;;;;;22.30;15.63;;;18.70;99.90;;;;;;5053928;28;20952;-76
2022/10/18 11:38:57;;;;;;;23.20;17.10;;;18.70;99.90;;;;;;5055990;28;20447;-75
2022/10/18 11:41:49;;;;;;;22.77;16.53;;;18.80;99.90;;;;;;5054143;28;20832;-76
2022/10/18 11:44:42;;;;;;;26.20;17.23;;;18.80;99.90;;;;;;5053561;28;20489;-74
2022/10/18 11:47:35;;;;;;;25.93;17.33;;;18.80;99.90;;;;;;5053691;28;20837;-76
2022/10/18 11:50:30;;;;;;;23.93;17.33;;;18.80;99.90;;;;;;5066629;28;20472;-75
2022/10/18 11:53:26;;;;;;;22.83;17.53;;;18.80;99.90;;;;;;5069212;28;20478;-77
2022/10/18 11:56:21;;;;;;;22.43;17.50;;;18.80;99.90;;;;;;5067502;28;20929;-74
2022/10/18 11:59:26;;;;;;;26.47;17.10;;;18.80;99.90;;;;;;5061354;28;20867;-75
2022/10/18 12:02:40;;;;;;;25.27;16.83;;;18.70;99.90;;;;;;5062655;28;20454;-76
2022/10/18 12:05:27;;;;;;;22.83;16.53;;;18.70;99.90;;;;;;5068679;28;20971;-76
2022/10/18 12:08:15;;;;;;;29.47;18.13;;;18.70;99.90;;;;;;5068731;28;20592;-76
2022/10/18 12:11:10;;;;;;;24.30;16.63;;;18.60;99.90;;;;;;5053462;28;20458;-76
2022/10/18 12:13:59;;;;;;;22.37;16.93;;;18.60;99.90;;;;;;5072800;28;20439;-74
2022/10/18 12:16:45;;;;;;;25.70;16.97;;;18.60;99.90;;;;;;5067920;28;20435;-75
2022/10/18 12:19:34;;;;;;;29.63;16.17;;;18.60;99.90;;;;;;5071828;28;20969;-76
2022/10/18 12:22:24;;;;;;;25.67;15.90;;;18.60;99.90;;;;;;5065899;28;20463;-76
2022/10/18 12:25:13;;;;;;;23.53;14.63;;;18.60;99.90;;;;;;5067826;28;20413;-76
2022/10/18 12:28:07;;;;;;;28.20;15.83;;;18.60;99.90;;;;;;5066979;28;20478;-76
2022/10/18 12:30:59;;;;;;;24.73;16.93;;;18.60;99.90;;;;;;5115838;22;20547;-79
2022/10/18 12:33:48;;;;;;;23.07;16.90;;;18.50;99.90;;;;;;5107186;28;20816;-79
2022/10/18 12:36:50;;;;;;;24.00;18.17;;;18.50;99.90;;;;;;5112616;28;20503;-76
2022/10/18 12:39:41;;;;;;;24.60;16.30;;;18.50;99.90;;;;;;5108450;28;20464;-79
2022/10/18 12:42:29;;;;;;;19.70;14.90;;;18.50;99.90;;;;;;5086410;28;20954;-78
2022/10/18 12:45:31;;;;;;;18.87;14.80;;;18.50;99.90;;;;;;5092354;28;20442;-77
2022/10/18 12:48:29;;;;;;;25.87;14.57;;;18.50;99.90;;;;;;5083237;28;20519;-78
2022/10/18 12:51:18;;;;;;;23.90;15.70;;;18.50;99.90;;;;;;5090338;28;20469;-78
2022/10/18 12:54:11;;;;;;;31.10;16.40;;;18.50;99.90;;;;;;5096505;28;20493;-80
2022/10/18 12:56:58;;;;;;;26.00;16.37;;;18.50;99.90;;;;;;5099447;28;20437;-76
2022/10/18 12:59:44;;;;;;;21.60;17.10;;;18.50;99.90;;;;;;5089970;28;20458;-77
2022/10/18 13:02:31;;;;;;;23.77;17.43;;;18.50;99.90;;;;;;5092150;28;20819;-77
2022/10/18 13:05:54;;;;;;;33.03;17.60;;;18.50;99.90;;;;;;5096452;28;20446;-76
2022/10/18 13:08:42;;;;;;;31.20;17.13;;;18.50;99.90;;;;;;5000093;28;20520;-78
2022/10/18 13:11:32;;;;;;;29.13;16.83;;;18.60;99.90;;;;;;5092652;28;20571;-77
2022/10/18 13:14:56;;;;;;;27.10;17.47;;;18.70;99.90;;;;;;5088935;28;20520;-77
2022/10/18 13:17:49;;;;;;;28.47;18.20;;;18.70;99.90;;;;;;5087370;28;20406;-77
2022/10/18 13:20:40;;;;;;;26.30;18.63;;;18.70;99.90;;;;;;5104402;28;20465;-77
2022/10/18 13:23:40;;;;;;;20.40;17.10;;;18.70;99.90;;;;;;5094973;28;20441;-77
2022/10/18 13:26:34;;;;;;;21.93;15.83;;;18.70;99.90;;;;;;5088289;28;20950;-77
2022/10/18 13:29:40;;;;;;;35.37;20.47;;;18.70;99.90;;;;;;5091192;28;20469;-79
2022/10/18 13:32:34;;;;;;;22.43;16.13;;;18.70;99.90;;;;;;5094318;28;20469;-77
2022/10/18 13:35:50;;;;;;;24.17;16.80;;;18.70;99.90;;;;;;5098311;28;20816;-77
2022/10/18 13:38:45;;;;;;;20.07;16.17;;;18.70;99.90;;;;;;5089465;28;20428;-78
2022/10/18 13:41:32;;;;;;;32.47;15.73;;;18.70;99.90;;;;;;5099601;28;20444;-77
2022/10/18 13:44:29;;;;;;;20.77;16.10;;;18.70;99.90;;;;;;5103159;28;20531;-77
2022/10/18 13:47:16;;;;;;;23.70;16.97;;;18.70;99.90;;;;;;5083952;28;20452;-77
2022/10/18 13:50:23;;;;;;;33.63;17.23;;;18.70;99.90;;;;;;5090970;28;20461;-77
2022/10/18 13:53:46;;;;;;;23.77;17.97;;;18.70;99.90;;;;;;5085889;28;20523;-78
2022/10/18 13:56:52;;;;;;;25.10;16.97;;;18.80;99.90;;;;;;5083458;28;20453;-78
2022/10/18 13:59:58;;;;;;;25.23;16.50;;;18.80;99.90;;;;;;5080982;28;20541;-77
2022/10/18 14:03:11;;;;;;;21.67;16.27;;;18.90;99.90;;;;;;5089219;28;20476;-76
2022/10/18 14:06:02;;;;;;;25.90;17.73;;;18.90;99.90;;;;;;5088882;28;20921;-76
2022/10/18 14:08:55;;;;;;;22.20;17.93;;;18.90;99.90;;;;;;5082043;28;21018;-76
2022/10/18 14:11:44;;;;;;;23.10;17.97;;;18.90;99.90;;;;;;5080336;28;20419;-78
2022/10/18 14:14:35;;;;;;;28.93;17.57;;;18.90;99.90;;;;;;5081072;28;20493;-78
2022/10/18 14:17:29;;;;;;;21.80;16.20;;;18.90;99.90;;;;;;5080157;28;20447;-80
2022/10/18 14:20:23;;;;;;;30.00;17.50;;;18.90;99.90;;;;;;5076916;28;20525;-77
2022/10/18 14:23:15;;;;;;;23.27;17.50;;;18.90;99.90;;;;;;5091675;28;20974;-77
2022/10/18 14:26:09;;;;;;;24.70;19.00;;;18.90;99.90;;;;;;5084114;28;20466;-77
2022/10/18 14:29:06;;;;;;;26.40;17.87;;;18.90;99.90;;;;;;5088804;28;20477;-80
2022/10/18 14:31:55;;;;;;;23.33;18.40;;;18.80;99.90;;;;;;5080817;28;20532;-77